Time;durP1;ratioP1;P1;durP2;ratioP2;P2;SDS_P1;SDS_P2;PMS_P1;PMS_P2;Temp;Humidity;BMP_temperature;BMP_pressure;BME280_temperature;BME280_humidity;BME280_pressure;Samples;Min_cycle;Max_cycle;Signal;HPM_P1;HPM_P2
2023/12/08 00:00:45;;;;;;;3.97;2.43;;;1.70;99.90;;;;;;2031559;29;20230;-83
2023/12/08 00:01:46;;;;;;;3.10;2.42;;;1.70;99.90;;;;;;2031435;29;20258;-83
2023/12/08 00:02:47;;;;;;;2.70;2.03;;;1.70;99.90;;;;;;2024035;28;20218;-82
2023/12/08 00:03:48;;;;;;;3.38;2.75;;;1.60;99.90;;;;;;2033679;28;20667;-86
2023/12/08 00:04:48;;;;;;;3.53;2.67;;;1.60;99.90;;;;;;2033052;28;20183;-81
2023/12/08 00:05:49;;;;;;;3.57;2.50;;;1.60;99.90;;;;;;2030380;28;20208;-82
2023/12/08 00:06:50;;;;;;;3.83;2.33;;;1.60;99.90;;;;;;2040064;29;20190;-82
2023/12/08 00:07:50;;;;;;;5.20;2.90;;;1.70;99.90;;;;;;2031413;29;20191;-82
2023/12/08 00:08:51;;;;;;;4.50;2.80;;;1.80;99.90;;;;;;2024308;28;20195;-82
2023/12/08 00:09:52;;;;;;;6.33;3.07;;;1.80;99.90;;;;;;2021449;28;20189;-83
2023/12/08 00:10:53;;;;;;;5.23;3.10;;;1.90;99.90;;;;;;2029506;28;20441;-83
2023/12/08 00:11:53;;;;;;;6.07;2.87;;;1.90;99.90;;;;;;2037398;28;20190;-80
2023/12/08 00:12:54;;;;;;;5.97;3.70;;;1.90;99.90;;;;;;2062612;28;20212;-82
2023/12/08 00:13:55;;;;;;;5.43;3.03;;;1.90;99.90;;;;;;2024201;29;20226;-83
2023/12/08 00:14:56;;;;;;;6.13;3.43;;;1.90;99.90;;;;;;2016695;28;20204;-84
2023/12/08 00:15:56;;;;;;;7.17;3.63;;;1.90;99.90;;;;;;2013714;28;20295;-85
2023/12/08 00:16:57;;;;;;;5.60;3.67;;;1.80;99.90;;;;;;2019720;29;20206;-85
2023/12/08 00:17:58;;;;;;;5.97;3.10;;;1.60;99.90;;;;;;2030848;29;20687;-82
2023/12/08 00:18:58;;;;;;;7.87;4.10;;;1.60;99.90;;;;;;2032357;28;20199;-84
2023/12/08 00:20:00;;;;;;;6.33;4.63;;;1.50;99.90;;;;;;2039208;29;20266;-84
2023/12/08 00:21:01;;;;;;;5.22;3.65;;;1.40;99.90;;;;;;2032458;29;20228;-85
2023/12/08 00:22:02;;;;;;;6.87;3.80;;;1.40;99.90;;;;;;2033016;29;20195;-84
2023/12/08 00:23:02;;;;;;;5.30;3.27;;;1.40;99.90;;;;;;2026886;29;20178;-84
2023/12/08 00:24:04;;;;;;;7.13;4.23;;;1.40;99.90;;;;;;2047759;28;20706;-81
2023/12/08 00:25:05;;;;;;;5.93;4.00;;;1.40;99.90;;;;;;2048688;28;20277;-84
2023/12/08 00:26:06;;;;;;;6.32;3.50;;;1.40;99.90;;;;;;2033930;28;20236;-85
2023/12/08 00:27:07;;;;;;;5.27;3.73;;;1.30;99.90;;;;;;2019104;28;20249;-85
2023/12/08 00:28:08;;;;;;;6.45;3.60;;;1.30;99.90;;;;;;2023794;28;20303;-83
2023/12/08 00:29:09;;;;;;;6.90;4.18;;;1.40;99.90;;;;;;2037731;28;20245;-84
2023/12/08 00:30:11;;;;;;;5.17;3.40;;;1.40;99.90;;;;;;2033921;29;20321;-84
2023/12/08 00:31:12;;;;;;;6.57;3.95;;;1.50;99.90;;;;;;2033503;29;20718;-84
2023/12/08 00:32:13;;;;;;;5.63;3.43;;;1.50;99.90;;;;;;2034028;29;20261;-84
2023/12/08 00:33:13;;;;;;;6.57;4.23;;;1.50;99.90;;;;;;2033407;29;20749;-84
2023/12/08 00:34:14;;;;;;;6.40;3.40;;;1.50;99.90;;;;;;2033080;29;20253;-83
2023/12/08 00:35:15;;;;;;;6.27;4.03;;;1.50;99.90;;;;;;2033479;29;20725;-84
2023/12/08 00:36:16;;;;;;;6.97;4.60;;;1.60;99.90;;;;;;2041084;29;20243;-85
2023/12/08 00:37:17;;;;;;;6.85;4.50;;;1.70;99.90;;;;;;2033474;29;20230;-85
2023/12/08 00:38:18;;;;;;;7.67;3.87;;;1.60;99.90;;;;;;2025609;28;20284;-85
2023/12/08 00:39:18;;;;;;;7.53;4.67;;;1.70;99.90;;;;;;2025753;28;20232;-84
2023/12/08 00:40:19;;;;;;;5.93;3.57;;;1.60;99.90;;;;;;2037695;28;20241;-85
2023/12/08 00:41:20;;;;;;;5.80;3.83;;;1.70;99.90;;;;;;2033426;29;20239;-83
2023/12/08 00:42:21;;;;;;;6.73;3.87;;;1.60;99.90;;;;;;2041259;29;20239;-85
2023/12/08 00:43:21;;;;;;;7.20;4.50;;;1.60;99.90;;;;;;2043865;29;20262;-84
2023/12/08 00:44:23;;;;;;;5.87;3.53;;;1.70;99.90;;;;;;2036285;29;20266;-84
2023/12/08 00:45:24;;;;;;;5.00;3.53;;;1.70;99.90;;;;;;2026935;28;20254;-84
2023/12/08 00:46:25;;;;;;;5.53;3.73;;;1.60;99.90;;;;;;2018712;29;20248;-84
2023/12/08 00:47:25;;;;;;;6.83;4.40;;;1.60;99.90;;;;;;2017642;28;20275;-85
2023/12/08 00:48:26;;;;;;;5.33;2.97;;;1.70;99.90;;;;;;2033398;29;20243;-84
2023/12/08 00:49:27;;;;;;;4.77;3.37;;;1.70;99.90;;;;;;2029261;29;20330;-85
2023/12/08 00:50:27;;;;;;;4.80;3.43;;;1.70;99.90;;;;;;2052318;28;20234;-85
2023/12/08 00:51:28;;;;;;;9.53;3.90;;;1.70;99.90;;;;;;2056039;28;20304;-85
2023/12/08 00:52:29;;;;;;;7.83;4.30;;;1.80;99.90;;;;;;2026284;28;20233;-85
2023/12/08 00:53:30;;;;;;;5.47;3.13;;;1.80;99.90;;;;;;2025543;29;20658;-86
2023/12/08 00:54:30;;;;;;;8.00;4.53;;;1.90;99.90;;;;;;2034120;28;20244;-85
2023/12/08 00:55:31;;;;;;;5.53;3.73;;;1.90;99.90;;;;;;2033735;29;20285;-84
2023/12/08 00:56:31;;;;;;;5.50;3.60;;;1.90;99.90;;;;;;2027531;29;20255;-85
2023/12/08 00:57:32;;;;;;;3.93;2.83;;;1.90;99.90;;;;;;2020967;29;20241;-85
2023/12/08 00:58:33;;;;;;;3.73;2.70;;;2.00;99.90;;;;;;2033488;29;20726;-85
2023/12/08 00:59:33;;;;;;;3.97;2.50;;;2.00;99.90;;;;;;2036752;28;20226;-84
2023/12/08 01:00:36;;;;;;;2.87;2.40;;;2.10;99.90;;;;;;2039815;29;20250;-84
2023/12/08 01:01:36;;;;;;;5.03;2.83;;;2.10;99.90;;;;;;2039611;28;20228;-84
2023/12/08 01:02:37;;;;;;;4.83;3.17;;;2.10;99.90;;;;;;2039551;28;20242;-85
2023/12/08 01:03:38;;;;;;;5.40;3.17;;;2.20;99.90;;;;;;2041032;29;20293;-86
2023/12/08 01:04:38;;;;;;;3.03;2.30;;;2.20;99.90;;;;;;2036439;29;20311;-85
2023/12/08 01:05:39;;;;;;;4.57;2.67;;;2.10;99.90;;;;;;2034285;29;20234;-85
2023/12/08 01:06:40;;;;;;;3.70;3.10;;;2.00;99.90;;;;;;2027851;28;20236;-85
2023/12/08 01:07:41;;;;;;;3.83;2.13;;;1.90;99.90;;;;;;2036948;28;20236;-85
2023/12/08 01:08:41;;;;;;;4.93;2.40;;;2.00;99.90;;;;;;2028118;28;20294;-85
2023/12/08 01:09:42;;;;;;;5.43;3.30;;;2.00;99.90;;;;;;2034248;28;20227;-85
2023/12/08 01:10:43;;;;;;;5.57;3.17;;;2.10;99.90;;;;;;2034069;29;20623;-85
2023/12/08 01:11:44;;;;;;;5.30;3.53;;;2.10;99.90;;;;;;2025744;28;20225;-85
2023/12/08 01:12:45;;;;;;;5.97;3.50;;;2.10;99.90;;;;;;2025851;29;20266;-85
2023/12/08 01:13:45;;;;;;;6.87;3.73;;;2.10;99.90;;;;;;2033841;28;20745;-85
2023/12/08 01:14:47;;;;;;;6.03;3.73;;;2.20;99.90;;;;;;2029309;28;20218;-85
2023/12/08 01:15:47;;;;;;;4.47;3.47;;;2.20;99.90;;;;;;2041227;28;20222;-84
2023/12/08 01:16:48;;;;;;;6.23;4.43;;;2.10;99.90;;;;;;2048814;28;20183;-84
2023/12/08 01:17:50;;;;;;;5.17;2.97;;;2.10;99.90;;;;;;2033091;28;20199;-84
2023/12/08 01:18:51;;;;;;;4.90;3.38;;;2.10;99.90;;;;;;2024972;28;20265;-83
2023/12/08 01:19:51;;;;;;;5.10;3.17;;;2.10;99.90;;;;;;2032729;28;20222;-84
2023/12/08 01:20:54;;;;;;;6.00;3.33;;;2.10;99.90;;;;;;2062077;28;20284;-84
2023/12/08 01:21:54;;;;;;;5.90;3.65;;;2.20;99.90;;;;;;2081099;28;20454;-82
2023/12/08 01:22:55;;;;;;;6.97;4.37;;;2.20;99.90;;;;;;2032556;28;20237;-84
2023/12/08 01:23:56;;;;;;;5.67;3.57;;;2.10;99.90;;;;;;2032265;28;20231;-84
2023/12/08 01:24:57;;;;;;;5.50;3.57;;;2.10;99.90;;;;;;2040378;28;20204;-83
2023/12/08 01:25:57;;;;;;;5.70;4.17;;;2.10;99.90;;;;;;2032783;28;20178;-84
2023/12/08 01:26:58;;;;;;;4.33;2.77;;;2.10;99.90;;;;;;2032855;28;20193;-84
2023/12/08 01:27:59;;;;;;;5.90;3.33;;;2.00;99.90;;;;;;2034611;28;20199;-84
2023/12/08 01:29:00;;;;;;;5.57;3.40;;;2.00;99.90;;;;;;2034749;28;20192;-84
2023/12/08 01:30:01;;;;;;;4.33;2.90;;;2.00;99.90;;;;;;2034546;28;20214;-83
2023/12/08 01:31:03;;;;;;;5.73;4.10;;;2.00;99.90;;;;;;2042106;28;20283;-84
2023/12/08 01:32:04;;;;;;;5.90;3.53;;;2.00;99.90;;;;;;2034480;28;20231;-84
2023/12/08 01:33:04;;;;;;;4.00;2.95;;;2.00;99.90;;;;;;2027176;28;22629;-83
2023/12/08 01:34:06;;;;;;;4.93;3.13;;;2.00;99.90;;;;;;2033711;28;20339;-83
2023/12/08 01:35:07;;;;;;;7.57;4.05;;;2.00;99.90;;;;;;2042182;28;20252;-84
2023/12/08 01:36:08;;;;;;;5.43;3.25;;;1.90;99.90;;;;;;2041956;28;20231;-83
2023/12/08 01:37:09;;;;;;;7.60;4.13;;;1.90;99.90;;;;;;2032675;28;20262;-83
2023/12/08 01:38:10;;;;;;;4.23;3.20;;;2.00;99.90;;;;;;2040624;28;20292;-84
2023/12/08 01:39:11;;;;;;;5.10;3.00;;;2.00;99.90;;;;;;2041248;28;20255;-83
2023/12/08 01:40:12;;;;;;;6.90;4.15;;;2.00;99.90;;;;;;2026218;28;20238;-83
2023/12/08 01:41:14;;;;;;;5.72;3.55;;;2.10;99.90;;;;;;2043103;28;20233;-84
2023/12/08 01:42:15;;;;;;;4.68;3.00;;;2.10;99.90;;;;;;2055759;28;20261;-83
2023/12/08 01:43:15;;;;;;;3.73;2.87;;;2.10;99.90;;;;;;2018416;28;20314;-83
2023/12/08 01:44:16;;;;;;;7.03;3.83;;;2.10;99.90;;;;;;2026262;29;20228;-83
2023/12/08 01:45:17;;;;;;;6.23;4.30;;;2.10;99.90;;;;;;2033866;29;20240;-83
2023/12/08 01:46:20;;;;;;;5.97;3.43;;;2.10;99.90;;;;;;2018783;29;20461;-85
2023/12/08 01:47:21;;;;;;;5.70;3.25;;;2.00;99.90;;;;;;2033759;29;20229;-84
2023/12/08 01:48:24;;;;;;;5.95;3.50;;;1.90;99.90;;;;;;2026319;29;20720;-84
2023/12/08 01:49:24;;;;;;;4.05;2.75;;;2.00;99.90;;;;;;2026524;28;20311;-84
2023/12/08 01:50:25;;;;;;;5.80;3.23;;;2.00;99.90;;;;;;2032899;28;20228;-84
2023/12/08 01:51:26;;;;;;;5.27;3.07;;;2.00;99.90;;;;;;2027579;29;20637;-83
2023/12/08 01:52:27;;;;;;;4.68;3.33;;;2.10;99.90;;;;;;2019360;29;20280;-84
2023/12/08 01:53:28;;;;;;;3.70;2.77;;;2.00;99.90;;;;;;2031024;28;20282;-83
2023/12/08 01:54:30;;;;;;;4.70;3.00;;;2.00;99.90;;;;;;2031854;28;20235;-84
2023/12/08 01:55:31;;;;;;;6.20;3.17;;;2.10;99.90;;;;;;2034021;29;20319;-83
2023/12/08 01:56:31;;;;;;;4.70;2.90;;;2.10;99.90;;;;;;2040817;28;20231;-84
2023/12/08 01:57:33;;;;;;;5.57;3.40;;;2.00;99.90;;;;;;2054905;28;20630;-85
2023/12/08 01:58:34;;;;;;;6.22;2.75;;;2.00;99.90;;;;;;2033283;29;20235;-83
2023/12/08 01:59:35;;;;;;;3.25;2.45;;;2.10;99.90;;;;;;2025185;28;20247;-83
2023/12/08 02:00:36;;;;;;;8.02;3.42;;;2.10;99.90;;;;;;2035374;28;20229;-84
2023/12/08 02:01:37;;;;;;;4.13;2.70;;;2.00;99.90;;;;;;2029760;28;20259;-84
2023/12/08 02:02:38;;;;;;;3.20;2.65;;;2.10;99.90;;;;;;2027223;29;20221;-84
2023/12/08 02:03:40;;;;;;;3.43;2.43;;;2.00;99.90;;;;;;2032395;29;20293;-85
2023/12/08 02:04:45;;;;;;;3.85;2.38;;;2.00;99.90;;;;;;2027157;28;20234;-85
2023/12/08 02:05:51;;;;;;;3.35;2.30;;;2.00;99.90;;;;;;2027302;29;20637;-84
2023/12/08 02:06:51;;;;;;;3.38;2.08;;;2.00;99.90;;;;;;2036420;29;20245;-84
2023/12/08 02:07:53;;;;;;;3.00;1.93;;;2.00;99.90;;;;;;2066264;28;20197;-84
2023/12/08 02:08:54;;;;;;;3.13;2.28;;;2.10;99.90;;;;;;2064676;28;20184;-84
2023/12/08 02:09:55;;;;;;;5.37;2.20;;;2.00;99.90;;;;;;2032331;29;20231;-84
2023/12/08 02:10:56;;;;;;;3.30;1.90;;;2.00;99.90;;;;;;2039754;29;20307;-84
2023/12/08 02:11:56;;;;;;;3.60;2.00;;;2.00;99.90;;;;;;2024413;28;20208;-84
2023/12/08 02:12:59;;;;;;;2.55;1.95;;;2.00;99.90;;;;;;2014379;28;20299;-84
2023/12/08 02:14:01;;;;;;;3.35;2.33;;;1.90;99.90;;;;;;2014668;28;20216;-84
2023/12/08 02:15:01;;;;;;;2.67;2.00;;;1.90;99.90;;;;;;2025564;29;20193;-83
2023/12/08 02:16:11;;;;;;;3.23;1.73;;;1.90;99.90;;;;;;2023364;28;20228;-84
2023/12/08 02:17:20;;;;;;;2.33;1.70;;;2.00;99.90;;;;;;2036891;29;20261;-84
2023/12/08 02:18:21;;;;;;;2.80;1.70;;;2.10;99.90;;;;;;2032231;29;20262;-84
2023/12/08 02:19:23;;;;;;;3.75;1.98;;;2.10;99.90;;;;;;2020384;29;20237;-84
2023/12/08 02:20:23;;;;;;;2.45;1.75;;;2.10;99.90;;;;;;2039544;29;20299;-84
2023/12/08 02:21:25;;;;;;;3.23;1.83;;;2.10;99.90;;;;;;2032706;29;20251;-84
2023/12/08 02:22:26;;;;;;;2.28;1.75;;;2.20;99.90;;;;;;2039289;29;20262;-85
2023/12/08 02:23:27;;;;;;;2.37;1.73;;;2.20;99.90;;;;;;2034554;29;20244;-85
2023/12/08 02:24:27;;;;;;;2.33;1.97;;;2.30;99.90;;;;;;2035267;29;20242;-85
2023/12/08 02:25:28;;;;;;;2.67;1.87;;;2.20;99.90;;;;;;2026901;29;20234;-85
2023/12/08 02:26:29;;;;;;;2.33;1.57;;;2.20;99.90;;;;;;2033749;29;20247;-85
2023/12/08 02:27:30;;;;;;;4.50;2.70;;;2.10;99.90;;;;;;2032550;29;20232;-83
2023/12/08 02:28:30;;;;;;;3.97;2.70;;;2.10;99.90;;;;;;2026554;28;20243;-85
2023/12/08 02:29:31;;;;;;;2.77;2.17;;;2.10;99.90;;;;;;2026286;29;20691;-85
2023/12/08 02:30:32;;;;;;;3.07;2.20;;;2.10;99.90;;;;;;2032735;29;20234;-84
2023/12/08 02:31:43;;;;;;;3.40;1.87;;;2.10;99.90;;;;;;2033598;29;20244;-85
2023/12/08 02:33:07;;;;;;;4.70;2.83;;;2.20;99.90;;;;;;2033953;29;20263;-85
2023/12/08 02:34:09;;;;;;;3.22;2.67;;;2.20;99.90;;;;;;2035782;28;20254;-85
2023/12/08 02:35:13;;;;;;;3.58;2.20;;;2.30;99.90;;;;;;2051650;28;20657;-82
2023/12/08 02:36:18;;;;;;;3.03;2.53;;;2.20;99.90;;;;;;2033158;29;20631;-85
2023/12/08 02:37:21;;;;;;;3.50;2.45;;;2.20;99.90;;;;;;2040813;29;20236;-83
2023/12/08 02:38:24;;;;;;;4.22;2.40;;;2.20;99.90;;;;;;2031971;29;20232;-85
2023/12/08 02:39:27;;;;;;;4.82;3.20;;;2.30;99.90;;;;;;2030155;29;20247;-84
2023/12/08 02:40:28;;;;;;;4.35;2.80;;;2.30;99.90;;;;;;2040326;29;20234;-85
2023/12/08 02:41:29;;;;;;;5.67;3.27;;;2.30;99.90;;;;;;2041386;28;20236;-82
2023/12/08 02:42:30;;;;;;;4.88;2.80;;;2.20;99.90;;;;;;2033286;29;20266;-83
2023/12/08 02:43:31;;;;;;;4.60;2.67;;;2.20;99.90;;;;;;2040705;28;20238;-85
2023/12/08 02:44:31;;;;;;;4.77;3.00;;;2.20;99.90;;;;;;2026190;28;20243;-85
2023/12/08 02:45:32;;;;;;;6.10;2.60;;;2.30;99.90;;;;;;2040545;28;20231;-86
2023/12/08 02:46:33;;;;;;;5.03;3.08;;;2.30;99.90;;;;;;2025192;28;20289;-85
2023/12/08 02:47:34;;;;;;;4.50;3.13;;;2.30;99.90;;;;;;2032111;29;20229;-85
2023/12/08 02:48:34;;;;;;;4.57;3.10;;;2.30;99.90;;;;;;2035132;29;20237;-85
2023/12/08 02:49:35;;;;;;;3.93;2.73;;;2.20;99.90;;;;;;2024374;29;20236;-85
2023/12/08 02:50:36;;;;;;;3.97;2.53;;;2.10;99.90;;;;;;2024272;29;20234;-84
2023/12/08 02:51:36;;;;;;;6.27;3.97;;;2.10;99.90;;;;;;2032377;29;20719;-84
2023/12/08 02:52:37;;;;;;;6.10;3.47;;;1.90;99.90;;;;;;2024098;29;20248;-84
2023/12/08 02:53:38;;;;;;;6.90;4.07;;;1.90;99.90;;;;;;2023828;29;20247;-85
2023/12/08 02:54:38;;;;;;;4.03;2.37;;;1.90;99.90;;;;;;2030280;29;20326;-85
2023/12/08 02:55:39;;;;;;;4.27;2.60;;;1.90;99.90;;;;;;2024276;29;20304;-85
2023/12/08 02:56:40;;;;;;;3.57;2.50;;;1.90;99.90;;;;;;2031779;29;20299;-86
2023/12/08 02:57:40;;;;;;;3.57;2.17;;;1.90;99.90;;;;;;2030208;29;20240;-84
2023/12/08 02:58:41;;;;;;;6.87;3.00;;;2.00;99.90;;;;;;2024212;28;20258;-85
2023/12/08 02:59:42;;;;;;;3.63;2.60;;;2.00;99.90;;;;;;2024910;29;20325;-86
2023/12/08 03:00:42;;;;;;;5.03;3.00;;;2.00;99.90;;;;;;2031867;29;20656;-84
2023/12/08 03:01:43;;;;;;;5.00;2.90;;;2.10;99.90;;;;;;2023828;29;20246;-85
2023/12/08 03:02:44;;;;;;;3.93;2.83;;;2.00;99.90;;;;;;2020058;29;20819;-84
2023/12/08 03:03:44;;;;;;;3.03;2.07;;;2.00;99.90;;;;;;2017717;29;20273;-84
2023/12/08 03:04:45;;;;;;;4.13;2.70;;;2.00;99.90;;;;;;2016172;29;20341;-85
2023/12/08 03:05:46;;;;;;;2.57;1.90;;;2.00;99.90;;;;;;2024047;29;20196;-84
2023/12/08 03:06:46;;;;;;;4.00;2.53;;;2.10;99.90;;;;;;2030678;29;20351;-85
2023/12/08 03:07:47;;;;;;;4.50;2.70;;;2.20;99.90;;;;;;2031338;29;20190;-83
2023/12/08 03:08:48;;;;;;;5.32;2.90;;;2.10;99.90;;;;;;2024156;29;20673;-84
2023/12/08 03:09:49;;;;;;;3.50;2.20;;;2.00;99.90;;;;;;2024823;29;20285;-84
2023/12/08 03:10:49;;;;;;;2.77;1.63;;;2.00;99.90;;;;;;2029097;29;20741;-85
2023/12/08 03:11:50;;;;;;;3.50;2.00;;;2.00;99.90;;;;;;2031807;29;20231;-84
2023/12/08 03:12:51;;;;;;;2.50;1.90;;;2.10;99.90;;;;;;2034787;29;20278;-85
2023/12/08 03:13:51;;;;;;;2.97;1.90;;;2.00;99.90;;;;;;2033651;29;20631;-85
2023/12/08 03:14:52;;;;;;;3.00;1.90;;;2.00;99.90;;;;;;2061384;28;20191;-85
2023/12/08 03:15:53;;;;;;;2.60;1.87;;;2.10;99.90;;;;;;2020623;28;20202;-84
2023/12/08 03:16:55;;;;;;;6.47;2.37;;;2.00;99.90;;;;;;2022951;29;20283;-85
2023/12/08 03:17:55;;;;;;;3.05;2.30;;;2.00;99.90;;;;;;2016799;29;20206;-84
2023/12/08 03:18:56;;;;;;;4.47;2.27;;;2.00;99.90;;;;;;2013415;29;20204;-84
2023/12/08 03:19:57;;;;;;;3.87;2.13;;;2.00;99.90;;;;;;2016552;29;20365;-85
2023/12/08 03:20:58;;;;;;;2.50;1.80;;;2.00;99.90;;;;;;2016571;29;20229;-84
2023/12/08 03:21:59;;;;;;;2.65;2.00;;;2.00;99.90;;;;;;2033132;29;20232;-85
2023/12/08 03:22:59;;;;;;;2.50;1.77;;;2.00;99.90;;;;;;2042981;29;20614;-85
2023/12/08 03:24:00;;;;;;;2.97;1.87;;;1.90;99.90;;;;;;2027445;28;20218;-85
2023/12/08 03:25:01;;;;;;;2.47;1.70;;;2.00;99.90;;;;;;2029567;28;20593;-86
2023/12/08 03:26:02;;;;;;;3.33;2.10;;;2.00;99.90;;;;;;2023813;28;20268;-85
2023/12/08 03:27:03;;;;;;;4.50;1.90;;;2.00;99.90;;;;;;2018887;28;20563;-85
2023/12/08 03:28:04;;;;;;;2.45;1.60;;;2.10;99.90;;;;;;2024731;28;20271;-85
2023/12/08 03:29:05;;;;;;;2.90;1.57;;;2.20;99.90;;;;;;2033649;29;20576;-85
2023/12/08 03:30:06;;;;;;;3.40;1.70;;;2.20;99.90;;;;;;2026238;29;20300;-85
2023/12/08 03:31:23;;;;;;;3.20;2.28;;;2.20;99.90;;;;;;2026682;28;20840;-84
2023/12/08 03:32:23;;;;;;;3.38;2.33;;;2.20;99.90;;;;;;2025138;28;20300;-85
2023/12/08 03:33:24;;;;;;;3.83;2.20;;;2.20;99.90;;;;;;2028511;28;20233;-85
2023/12/08 03:34:25;;;;;;;3.93;2.30;;;2.20;99.90;;;;;;2028421;29;20760;-85
2023/12/08 03:35:25;;;;;;;3.47;2.37;;;2.20;99.90;;;;;;2019053;29;20625;-85
2023/12/08 03:36:26;;;;;;;3.57;2.50;;;2.20;99.90;;;;;;2026419;29;20332;-85
2023/12/08 03:37:27;;;;;;;2.87;1.90;;;2.20;99.90;;;;;;2024035;29;20275;-84
2023/12/08 03:38:27;;;;;;;5.27;2.40;;;2.20;99.90;;;;;;2016976;28;20264;-84
2023/12/08 03:39:28;;;;;;;3.30;2.13;;;2.20;99.90;;;;;;2016541;28;20228;-85
2023/12/08 03:40:29;;;;;;;4.33;2.47;;;2.20;99.90;;;;;;2029712;29;20247;-83
2023/12/08 03:41:29;;;;;;;3.33;2.10;;;2.10;99.90;;;;;;2013548;29;20244;-85
2023/12/08 03:42:36;;;;;;;3.77;1.87;;;2.20;99.90;;;;;;2027450;28;20243;-85
2023/12/08 03:43:37;;;;;;;4.72;2.72;;;2.30;99.90;;;;;;2028524;28;20299;-85
2023/12/08 03:44:38;;;;;;;2.85;2.10;;;2.30;99.90;;;;;;2032455;28;20307;-84
2023/12/08 03:45:39;;;;;;;2.17;1.70;;;2.30;99.90;;;;;;2031462;29;20278;-85
2023/12/08 03:46:42;;;;;;;2.73;2.07;;;2.40;99.90;;;;;;2031446;28;20239;-84
2023/12/08 03:47:43;;;;;;;3.17;1.90;;;2.40;99.90;;;;;;2038877;29;20237;-85
2023/12/08 03:48:44;;;;;;;3.97;2.20;;;2.40;99.90;;;;;;2036110;29;20244;-85
2023/12/08 03:49:45;;;;;;;4.00;1.95;;;2.40;99.90;;;;;;2041426;29;20301;-84
2023/12/08 03:50:45;;;;;;;3.27;2.10;;;2.40;99.90;;;;;;2026076;29;20228;-85
2023/12/08 03:51:46;;;;;;;4.00;2.50;;;2.40;99.90;;;;;;2021487;29;20232;-85
2023/12/08 03:52:52;;;;;;;3.63;2.57;;;2.50;99.90;;;;;;2028185;29;20219;-85
2023/12/08 03:53:53;;;;;;;3.22;1.95;;;2.50;99.90;;;;;;2029996;28;20247;-85
2023/12/08 03:54:54;;;;;;;4.13;2.77;;;2.50;99.90;;;;;;2036074;28;20232;-86
2023/12/08 03:55:54;;;;;;;4.30;2.83;;;2.50;99.90;;;;;;2054545;28;20207;-86
2023/12/08 03:56:55;;;;;;;3.50;2.13;;;2.50;99.90;;;;;;2036350;29;20223;-85
2023/12/08 03:57:56;;;;;;;4.70;2.60;;;2.50;99.90;;;;;;2042652;28;20200;-85
2023/12/08 03:58:56;;;;;;;4.40;2.67;;;2.50;99.90;;;;;;2042888;28;20199;-85
2023/12/08 03:59:57;;;;;;;3.93;2.43;;;2.50;99.90;;;;;;2025919;29;20322;-85
2023/12/08 04:00:58;;;;;;;4.77;2.50;;;2.50;99.90;;;;;;2061126;28;20262;-85
2023/12/08 04:01:59;;;;;;;3.33;2.43;;;2.50;99.90;;;;;;2040333;29;20186;-85
2023/12/08 04:02:59;;;;;;;3.53;2.00;;;2.50;99.90;;;;;;2032807;29;20628;-85
2023/12/08 04:04:00;;;;;;;5.87;2.30;;;2.60;99.90;;;;;;2029455;29;21201;-85
2023/12/08 04:05:01;;;;;;;4.00;2.30;;;2.70;99.90;;;;;;2027212;29;20202;-85
2023/12/08 04:06:01;;;;;;;3.20;2.13;;;2.60;99.90;;;;;;2038073;28;20182;-84
2023/12/08 04:07:02;;;;;;;5.13;2.23;;;2.50;99.90;;;;;;2039609;28;20187;-84
2023/12/08 04:08:04;;;;;;;3.90;2.37;;;2.50;99.90;;;;;;2026134;28;20649;-85
2023/12/08 04:09:06;;;;;;;4.60;2.80;;;2.50;99.90;;;;;;2025790;28;20238;-85
2023/12/08 04:10:07;;;;;;;4.22;2.22;;;2.50;99.90;;;;;;2035607;28;20236;-83
2023/12/08 04:11:08;;;;;;;2.97;2.42;;;2.50;99.90;;;;;;2018894;29;20292;-85
2023/12/08 04:12:08;;;;;;;5.67;2.97;;;2.50;99.90;;;;;;2065757;28;20713;-84
2023/12/08 04:13:09;;;;;;;5.43;2.77;;;2.40;99.90;;;;;;2065430;28;21003;-86
2023/12/08 04:14:10;;;;;;;4.87;2.57;;;2.40;99.90;;;;;;2030701;28;20264;-83
2023/12/08 04:15:11;;;;;;;3.83;2.53;;;2.40;99.90;;;;;;2020572;29;20320;-84
2023/12/08 04:16:14;;;;;;;3.73;1.70;;;2.30;99.90;;;;;;2029363;29;20247;-84
2023/12/08 04:17:15;;;;;;;2.55;1.60;;;2.30;99.90;;;;;;2047611;28;20211;-84
2023/12/08 04:18:15;;;;;;;3.63;2.40;;;2.20;99.90;;;;;;2039455;28;20233;-84
2023/12/08 04:19:18;;;;;;;4.37;2.90;;;2.20;99.90;;;;;;2040831;29;20242;-84
2023/12/08 04:20:20;;;;;;;2.95;2.05;;;2.20;99.90;;;;;;2031944;29;20247;-84
2023/12/08 04:21:21;;;;;;;4.20;2.55;;;2.20;99.90;;;;;;2031269;29;20294;-84
2023/12/08 04:22:21;;;;;;;3.10;1.70;;;2.30;99.90;;;;;;2030678;29;20265;-84
2023/12/08 04:23:22;;;;;;;3.23;2.27;;;2.30;99.90;;;;;;2039424;28;20722;-85
2023/12/08 04:24:23;;;;;;;5.40;2.37;;;2.40;99.90;;;;;;2054601;28;20244;-85
2023/12/08 04:25:23;;;;;;;2.50;2.13;;;2.40;99.90;;;;;;2032927;29;20240;-83
2023/12/08 04:26:27;;;;;;;3.07;2.20;;;2.40;99.90;;;;;;2028964;28;20244;-84
2023/12/08 04:27:28;;;;;;;3.95;2.17;;;2.40;99.90;;;;;;2030871;28;20246;-85
2023/12/08 04:28:29;;;;;;;3.47;2.00;;;2.40;99.90;;;;;;2029833;28;20237;-85
2023/12/08 04:29:29;;;;;;;2.50;1.70;;;2.40;99.90;;;;;;2020122;28;20295;-83
2023/12/08 04:30:30;;;;;;;1.97;1.60;;;2.40;99.90;;;;;;2029857;28;20271;-85
2023/12/08 04:31:31;;;;;;;2.53;1.93;;;2.50;99.90;;;;;;2025543;28;20251;-85
2023/12/08 04:32:32;;;;;;;3.47;2.00;;;2.50;99.90;;;;;;2025606;29;20266;-84
2023/12/08 04:33:33;;;;;;;2.72;1.63;;;2.50;99.90;;;;;;2064425;28;20244;-85
2023/12/08 04:34:34;;;;;;;2.43;1.83;;;2.50;99.90;;;;;;2024418;28;20623;-85
2023/12/08 04:35:35;;;;;;;3.00;1.93;;;2.50;99.90;;;;;;2026448;28;20265;-85
2023/12/08 04:36:36;;;;;;;3.25;1.80;;;2.50;99.90;;;;;;2019753;28;20852;-85
2023/12/08 04:37:36;;;;;;;5.30;2.93;;;2.50;99.90;;;;;;2035988;29;20266;-85
2023/12/08 04:38:37;;;;;;;3.07;2.00;;;2.50;99.90;;;;;;2036854;29;20736;-85
2023/12/08 04:39:38;;;;;;;3.30;2.23;;;2.40;99.90;;;;;;2058937;28;20257;-86
2023/12/08 04:40:39;;;;;;;2.30;1.40;;;2.40;99.90;;;;;;2065729;28;20325;-86
2023/12/08 04:41:39;;;;;;;2.90;2.00;;;2.40;99.90;;;;;;2032649;29;20225;-86
2023/12/08 04:42:40;;;;;;;1.77;1.37;;;2.30;99.90;;;;;;2033407;29;20236;-85
2023/12/08 04:43:41;;;;;;;2.03;1.47;;;2.40;99.90;;;;;;2032673;29;20244;-86
2023/12/08 04:44:42;;;;;;;1.67;1.20;;;2.40;99.90;;;;;;2033910;29;20271;-85
2023/12/08 04:45:43;;;;;;;4.38;1.30;;;2.50;99.90;;;;;;2065642;28;20225;-85
2023/12/08 04:46:44;;;;;;;1.42;1.33;;;2.50;99.90;;;;;;2032919;29;20239;-84
2023/12/08 04:47:45;;;;;;;2.27;1.30;;;2.50;99.90;;;;;;2032079;29;20302;-85
2023/12/08 04:48:45;;;;;;;2.00;1.50;;;2.60;99.90;;;;;;2042830;28;20272;-85
2023/12/08 04:49:46;;;;;;;2.27;2.07;;;2.60;99.90;;;;;;2033161;29;20199;-84
2023/12/08 04:50:47;;;;;;;3.40;2.10;;;2.60;99.90;;;;;;2038332;28;20219;-84
2023/12/08 04:51:47;;;;;;;4.27;2.07;;;2.60;99.90;;;;;;2027770;28;20272;-85
2023/12/08 04:52:48;;;;;;;3.30;2.13;;;2.50;99.90;;;;;;2040768;29;20219;-85
2023/12/08 04:53:49;;;;;;;5.37;2.90;;;2.40;99.90;;;;;;2025418;28;20236;-84
2023/12/08 04:54:49;;;;;;;5.47;2.63;;;2.30;99.90;;;;;;2029308;28;20193;-85
2023/12/08 04:55:50;;;;;;;4.03;2.70;;;2.20;99.90;;;;;;2029057;29;20185;-85
2023/12/08 04:56:51;;;;;;;4.50;2.83;;;2.10;99.90;;;;;;2037848;29;20242;-85
2023/12/08 04:57:51;;;;;;;3.23;2.20;;;2.00;99.90;;;;;;2030121;29;20255;-84
2023/12/08 04:58:52;;;;;;;2.80;2.37;;;2.00;99.90;;;;;;2015394;28;20214;-84
2023/12/08 04:59:53;;;;;;;5.10;3.20;;;2.00;99.90;;;;;;2060380;28;20272;-84
2023/12/08 05:00:54;;;;;;;3.87;2.63;;;2.00;99.90;;;;;;2071767;28;20856;-84
2023/12/08 05:01:54;;;;;;;4.10;2.80;;;2.00;99.90;;;;;;2033383;29;20201;-84
2023/12/08 05:02:58;;;;;;;7.47;4.60;;;2.10;99.90;;;;;;2029650;29;20300;-85
2023/12/08 05:04:00;;;;;;;5.57;3.92;;;2.00;99.90;;;;;;2030049;28;20212;-84
2023/12/08 05:05:01;;;;;;;9.23;5.00;;;2.10;99.90;;;;;;2036573;29;20188;-84
2023/12/08 05:06:01;;;;;;;10.60;6.88;;;2.10;99.90;;;;;;2031370;29;20189;-85
2023/12/08 05:07:03;;;;;;;5.37;3.43;;;2.20;99.90;;;;;;2034331;29;20799;-85
2023/12/08 05:08:04;;;;;;;3.67;2.42;;;2.20;99.90;;;;;;2033899;28;20199;-85
2023/12/08 05:09:05;;;;;;;3.10;1.80;;;2.30;99.90;;;;;;2035990;29;20236;-85
2023/12/08 05:10:06;;;;;;;7.97;4.60;;;2.40;99.90;;;;;;2040169;29;20238;-85
2023/12/08 05:11:07;;;;;;;6.88;3.78;;;2.40;99.90;;;;;;2042534;29;20765;-84
2023/12/08 05:12:08;;;;;;;5.47;3.20;;;2.40;99.90;;;;;;2080891;28;20283;-85
2023/12/08 05:13:09;;;;;;;3.00;2.13;;;2.40;99.90;;;;;;2067493;28;20283;-85
2023/12/08 05:14:09;;;;;;;2.70;1.83;;;2.50;99.90;;;;;;2036570;28;20339;-86
2023/12/08 05:15:10;;;;;;;3.57;2.10;;;2.50;99.90;;;;;;2042044;28;20243;-85
2023/12/08 05:16:11;;;;;;;4.03;2.43;;;2.50;99.90;;;;;;2024643;28;20239;-85
2023/12/08 05:17:12;;;;;;;3.03;1.85;;;2.50;99.90;;;;;;2034498;29;20244;-85
2023/12/08 05:18:12;;;;;;;4.10;2.30;;;2.60;99.90;;;;;;2039837;29;20250;-83
2023/12/08 05:19:13;;;;;;;3.20;2.50;;;2.50;99.90;;;;;;2030757;28;20246;-86
2023/12/08 05:20:14;;;;;;;2.20;1.90;;;2.60;99.90;;;;;;2035582;28;20610;-85
2023/12/08 05:21:15;;;;;;;3.73;2.17;;;2.60;99.90;;;;;;2062901;28;20233;-85
2023/12/08 05:22:15;;;;;;;3.63;2.40;;;2.60;99.90;;;;;;2032286;29;20303;-84
2023/12/08 05:23:16;;;;;;;3.47;2.20;;;2.60;99.90;;;;;;2027176;29;20280;-85